Time;durP1;ratioP1;P1;durP2;ratioP2;P2;SDS_P1;SDS_P2;PMS_P1;PMS_P2;Temp;Humidity;BMP_temperature;BMP_pressure;BME280_temperature;BME280_humidity;BME280_pressure;Samples;Min_cycle;Max_cycle;Signal;HPM_P1;HPM_P2
2023/12/02 00:00:02;;;;;;;5.53;5.03;;;14.80;55.50;;;;;;5055094;28;20171;-64
2023/12/02 00:02:27;;;;;;;6.20;5.60;;;14.80;55.40;;;;;;5054686;28;20207;-63
2023/12/02 00:04:53;;;;;;;6.85;6.20;;;14.80;55.40;;;;;;5054320;28;20182;-64
2023/12/02 00:07:18;;;;;;;6.38;5.82;;;14.80;55.30;;;;;;5054543;28;20182;-65
2023/12/02 00:09:44;;;;;;;6.95;6.35;;;14.80;55.40;;;;;;5054701;28;20179;-65
2023/12/02 00:12:09;;;;;;;6.38;5.78;;;14.70;55.30;;;;;;5053873;28;20543;-65
2023/12/02 00:14:35;;;;;;;6.60;6.00;;;14.70;55.40;;;;;;5054350;28;20649;-64
2023/12/02 00:17:00;;;;;;;5.57;5.07;;;14.70;55.30;;;;;;5054614;28;20178;-65
2023/12/02 00:19:26;;;;;;;6.07;5.47;;;14.70;55.30;;;;;;5053640;28;20179;-64
2023/12/02 00:21:51;;;;;;;6.53;5.93;;;14.70;55.40;;;;;;5054564;28;20213;-64
2023/12/02 00:24:17;;;;;;;6.82;6.22;;;14.70;55.30;;;;;;5054089;28;20175;-65
2023/12/02 00:26:42;;;;;;;5.60;5.10;;;14.70;55.30;;;;;;5053729;28;20537;-64
2023/12/02 00:29:08;;;;;;;6.43;5.82;;;14.70;55.30;;;;;;5054447;28;20661;-64
2023/12/02 00:31:34;;;;;;;6.53;5.88;;;14.70;55.40;;;;;;5053473;28;20187;-64
2023/12/02 00:33:59;;;;;;;6.75;6.07;;;14.60;55.30;;;;;;5054431;28;20171;-65
2023/12/02 00:36:25;;;;;;;5.93;5.32;;;14.60;55.30;;;;;;5053916;28;20179;-65
2023/12/02 00:38:51;;;;;;;6.10;5.60;;;14.60;55.30;;;;;;5053318;28;20187;-64
2023/12/02 00:41:16;;;;;;;6.38;5.78;;;14.60;55.30;;;;;;5054061;28;20214;-64
2023/12/02 00:43:42;;;;;;;6.13;5.32;;;14.60;55.30;;;;;;5054275;28;20178;-63
2023/12/02 00:46:07;;;;;;;6.88;5.95;;;14.60;55.30;;;;;;5053531;28;20179;-64
2023/12/02 00:48:33;;;;;;;6.53;5.93;;;14.60;55.30;;;;;;5053828;28;20186;-63
2023/12/02 00:50:58;;;;;;;6.90;5.78;;;14.60;55.50;;;;;;5053894;28;20545;-64
2023/12/02 00:53:24;;;;;;;6.43;5.82;;;14.60;55.40;;;;;;5053040;28;20551;-65
2023/12/02 00:55:49;;;;;;;5.93;5.32;;;14.60;55.30;;;;;;5053798;28;20179;-64
2023/12/02 00:58:15;;;;;;;6.97;6.25;;;14.50;55.30;;;;;;5053436;28;20182;-64
2023/12/02 01:00:40;;;;;;;6.55;5.95;;;14.50;55.30;;;;;;5053010;28;20211;-63
2023/12/02 01:03:06;;;;;;;6.40;5.85;;;14.50;55.30;;;;;;5053739;28;20175;-63
2023/12/02 01:05:31;;;;;;;6.63;6.03;;;14.50;55.30;;;;;;5053445;28;20186;-64
2023/12/02 01:07:57;;;;;;;6.97;6.28;;;14.50;55.30;;;;;;5052695;28;20175;-65
2023/12/02 01:10:23;;;;;;;6.40;5.80;;;14.50;55.20;;;;;;5053537;28;20179;-65
2023/12/02 01:12:48;;;;;;;6.53;5.93;;;14.50;55.30;;;;;;5053693;28;20168;-64
2023/12/02 01:15:14;;;;;;;6.65;5.95;;;14.50;55.30;;;;;;5052568;28;20636;-65
2023/12/02 01:17:39;;;;;;;6.65;6.03;;;14.40;55.20;;;;;;5053469;28;20197;-64
2023/12/02 01:20:05;;;;;;;6.85;6.18;;;14.50;55.30;;;;;;5053175;28;20229;-64
2023/12/02 01:22:31;;;;;;;6.03;5.43;;;14.40;55.30;;;;;;5052189;28;20256;-65
2023/12/02 01:24:56;;;;;;;5.95;5.35;;;14.40;55.20;;;;;;5053638;28;20175;-65
2023/12/02 01:27:22;;;;;;;5.82;5.32;;;14.40;55.30;;;;;;5053056;28;20183;-64
2023/12/02 01:29:47;;;;;;;6.25;5.68;;;14.40;55.30;;;;;;5052700;28;20167;-64
2023/12/02 01:32:13;;;;;;;6.45;5.85;;;14.40;55.30;;;;;;5053369;28;20600;-65
2023/12/02 01:34:38;;;;;;;6.63;6.03;;;14.40;55.30;;;;;;5052918;28;20699;-65
2023/12/02 01:37:04;;;;;;;6.53;5.93;;;14.40;55.20;;;;;;5052264;28;20175;-65
2023/12/02 01:39:29;;;;;;;6.40;5.80;;;14.40;55.30;;;;;;5052764;28;20171;-64
2023/12/02 01:41:55;;;;;;;6.20;5.65;;;14.30;55.20;;;;;;5051727;28;20226;-63
2023/12/02 01:44:20;;;;;;;7.30;6.20;;;14.30;55.20;;;;;;5052822;28;20179;-64
2023/12/02 01:46:46;;;;;;;6.90;6.18;;;14.40;55.30;;;;;;5052994;28;20182;-63
2023/12/02 01:49:11;;;;;;;6.78;5.82;;;14.30;55.30;;;;;;5052240;28;20163;-64
2023/12/02 01:51:37;;;;;;;5.88;5.28;;;14.30;55.30;;;;;;5050979;28;20238;-64
2023/12/02 01:54:03;;;;;;;6.20;5.70;;;14.30;55.30;;;;;;5053032;28;20175;-65
2023/12/02 01:56:28;;;;;;;6.90;6.25;;;14.30;55.40;;;;;;5051899;28;20183;-64
2023/12/02 01:58:54;;;;;;;6.60;6.00;;;14.30;55.30;;;;;;5051660;28;20170;-64
2023/12/02 02:01:20;;;;;;;7.18;6.47;;;14.30;55.30;;;;;;5052206;28;20225;-63
2023/12/02 02:03:48;;;;;;;6.18;5.63;;;14.30;55.40;;;;;;5051878;28;20179;-64
2023/12/02 02:06:13;;;;;;;6.57;5.97;;;14.20;55.20;;;;;;5052518;28;20185;-65
2023/12/02 02:08:39;;;;;;;6.78;6.07;;;14.20;55.30;;;;;;5052759;28;20183;-65
2023/12/02 02:11:04;;;;;;;6.05;5.55;;;14.20;55.30;;;;;;5051877;28;20586;-66
2023/12/02 02:13:30;;;;;;;6.50;5.90;;;14.20;55.40;;;;;;5052272;28;20638;-65
2023/12/02 02:15:55;;;;;;;6.55;5.95;;;14.20;55.30;;;;;;5052457;28;20190;-64
2023/12/02 02:18:21;;;;;;;7.03;6.10;;;14.20;55.30;;;;;;5050916;28;20178;-64
2023/12/02 02:20:50;;;;;;;6.53;5.93;;;14.20;55.30;;;;;;5052130;28;20207;-63
2023/12/02 02:23:20;;;;;;;6.65;6.05;;;14.20;55.30;;;;;;5052189;28;20178;-65
2023/12/02 02:25:48;;;;;;;6.93;5.72;;;14.20;55.40;;;;;;5051696;28;20179;-64
2023/12/02 02:28:13;;;;;;;6.85;6.15;;;14.20;55.40;;;;;;5052331;28;20186;-65
2023/12/02 02:30:39;;;;;;;6.65;6.05;;;14.20;55.40;;;;;;5052393;28;20178;-64
2023/12/02 02:33:04;;;;;;;6.78;5.97;;;14.20;55.40;;;;;;5051419;28;20254;-64
2023/12/02 02:35:32;;;;;;;6.82;6.07;;;14.20;55.40;;;;;;5051659;28;20291;-65
2023/12/02 02:37:58;;;;;;;6.57;5.97;;;14.10;55.40;;;;;;5052071;28;20186;-64
2023/12/02 02:40:24;;;;;;;6.70;6.10;;;14.10;55.30;;;;;;5051041;28;20175;-64
2023/12/02 02:42:49;;;;;;;6.35;5.75;;;14.10;55.30;;;;;;5050882;28;20171;-64
2023/12/02 02:45:15;;;;;;;6.20;5.60;;;14.10;55.40;;;;;;5050833;28;20517;-63
2023/12/02 02:47:40;;;;;;;6.80;6.10;;;14.10;55.30;;;;;;5051952;28;20183;-63
2023/12/02 02:50:07;;;;;;;6.05;5.47;;;14.10;55.40;;;;;;5051863;28;20186;-64
2023/12/02 02:52:33;;;;;;;6.65;6.05;;;14.10;55.40;;;;;;5050850;28;20704;-64
2023/12/02 02:54:58;;;;;;;7.05;6.35;;;14.10;55.40;;;;;;5052079;28;20175;-64
2023/12/02 02:57:24;;;;;;;6.53;5.93;;;14.10;55.40;;;;;;5051791;28;20648;-64
2023/12/02 02:59:49;;;;;;;6.75;6.05;;;14.00;55.30;;;;;;5050939;28;20687;-64
2023/12/02 03:02:15;;;;;;;7.50;6.55;;;14.00;55.30;;;;;;5051445;28;20241;-63
2023/12/02 03:04:40;;;;;;;6.60;5.90;;;14.10;55.40;;;;;;5051620;28;20551;-64
2023/12/02 03:07:06;;;;;;;6.60;5.93;;;14.00;55.30;;;;;;5051095;28;20542;-64
2023/12/02 03:09:31;;;;;;;5.97;5.38;;;14.00;55.30;;;;;;5051343;28;20599;-65
2023/12/02 03:11:57;;;;;;;6.45;5.85;;;14.00;55.30;;;;;;5051628;28;20175;-64
2023/12/02 03:14:22;;;;;;;6.57;5.97;;;14.00;55.40;;;;;;5050769;28;20177;-64
2023/12/02 03:16:48;;;;;;;6.72;6.05;;;14.00;55.50;;;;;;5051669;28;20177;-64
2023/12/02 03:19:14;;;;;;;6.65;5.93;;;14.00;55.50;;;;;;5051267;28;20265;-64
2023/12/02 03:21:39;;;;;;;6.78;6.07;;;14.00;55.50;;;;;;5051038;28;20222;-64
2023/12/02 03:24:06;;;;;;;5.78;5.28;;;14.00;55.50;;;;;;5051804;28;20250;-64
2023/12/02 03:26:33;;;;;;;6.22;5.63;;;14.00;55.50;;;;;;5051209;28;20209;-64
2023/12/02 03:28:59;;;;;;;5.95;5.30;;;13.90;55.50;;;;;;5050762;28;20264;-65
2023/12/02 03:31:24;;;;;;;6.43;5.82;;;14.00;55.50;;;;;;5054474;28;20985;-64
2023/12/02 03:33:50;;;;;;;6.57;5.97;;;14.00;55.50;;;;;;5055409;28;20202;-64
2023/12/02 03:36:15;;;;;;;6.55;5.95;;;13.90;55.50;;;;;;5054639;28;20547;-64
2023/12/02 03:38:41;;;;;;;6.45;5.85;;;14.00;55.50;;;;;;5055387;28;20545;-64
2023/12/02 03:41:08;;;;;;;7.00;5.97;;;13.90;55.60;;;;;;5055110;28;20685;-64
2023/12/02 03:43:34;;;;;;;6.07;5.47;;;13.90;55.60;;;;;;5054413;28;20187;-64
2023/12/02 03:45:59;;;;;;;6.68;6.03;;;13.90;55.50;;;;;;5055160;28;20179;-64
2023/12/02 03:48:25;;;;;;;6.85;6.25;;;13.90;55.50;;;;;;5054541;28;20258;-63
2023/12/02 03:50:50;;;;;;;6.18;5.65;;;13.90;55.50;;;;;;5055060;28;20540;-64
2023/12/02 03:53:16;;;;;;;6.88;6.03;;;13.90;55.60;;;;;;5054587;28;20578;-64
2023/12/02 03:55:41;;;;;;;6.65;5.97;;;13.90;55.60;;;;;;5054502;28;20193;-64
2023/12/02 03:58:07;;;;;;;6.60;6.00;;;13.90;55.50;;;;;;5055016;28;20250;-63
2023/12/02 04:00:32;;;;;;;6.35;5.75;;;13.90;55.60;;;;;;5054737;28;20479;-64
2023/12/02 04:02:59;;;;;;;6.57;5.95;;;13.80;55.70;;;;;;5054184;28;20237;-64
2023/12/02 04:05:24;;;;;;;6.30;5.70;;;13.80;55.60;;;;;;5054746;28;20171;-64
2023/12/02 04:07:50;;;;;;;5.82;5.32;;;13.90;55.50;;;;;;5054889;28;20167;-65
2023/12/02 04:10:15;;;;;;;7.00;6.30;;;13.80;55.40;;;;;;5054018;28;20163;-64
2023/12/02 04:12:41;;;;;;;7.15;6.38;;;13.80;55.50;;;;;;5054808;28;20576;-64
2023/12/02 04:15:07;;;;;;;6.28;5.68;;;13.80;55.50;;;;;;5054653;28;20262;-64
2023/12/02 04:17:32;;;;;;;6.15;5.55;;;13.80;55.50;;;;;;5053603;28;20221;-64
2023/12/02 04:19:58;;;;;;;6.57;5.90;;;13.80;55.50;;;;;;5054781;28;20171;-64
2023/12/02 04:22:24;;;;;;;6.32;5.72;;;13.80;55.40;;;;;;5054146;28;20260;-64
2023/12/02 04:24:50;;;;;;;6.85;6.15;;;13.80;55.50;;;;;;5053950;28;20206;-64
2023/12/02 04:27:16;;;;;;;6.32;5.72;;;13.80;55.60;;;;;;5054195;28;20210;-64
2023/12/02 04:29:42;;;;;;;6.60;6.00;;;13.80;55.60;;;;;;5054511;28;20646;-64
2023/12/02 04:32:10;;;;;;;6.25;5.65;;;13.80;55.50;;;;;;5053673;28;20179;-65
2023/12/02 04:34:36;;;;;;;5.82;5.28;;;13.80;55.80;;;;;;5054206;28;20175;-64
2023/12/02 04:37:01;;;;;;;6.07;5.47;;;13.80;55.70;;;;;;5054419;28;20171;-64
2023/12/02 04:39:30;;;;;;;6.75;6.05;;;13.80;55.60;;;;;;5053333;28;20182;-65
2023/12/02 04:41:56;;;;;;;6.75;6.15;;;13.80;55.60;;;;;;5053539;28;20215;-65
2023/12/02 04:44:21;;;;;;;7.05;5.82;;;13.80;55.60;;;;;;5053949;28;20167;-65
2023/12/02 04:46:47;;;;;;;6.60;5.95;;;13.80;55.70;;;;;;5053363;28;20198;-64
2023/12/02 04:49:12;;;;;;;6.25;5.65;;;13.80;55.60;;;;;;5054323;28;20544;-65
2023/12/02 04:51:41;;;;;;;5.95;5.43;;;13.80;55.50;;;;;;5053243;28;20215;-64
2023/12/02 04:54:06;;;;;;;6.07;5.57;;;13.80;55.70;;;;;;5053205;28;20693;-66
2023/12/02 04:56:32;;;;;;;6.18;5.60;;;13.80;55.60;;;;;;5053547;28;20270;-64
2023/12/02 04:58:57;;;;;;;6.78;6.07;;;13.80;55.60;;;;;;5053233;28;20254;-65
2023/12/02 05:01:23;;;;;;;6.32;5.72;;;13.80;55.60;;;;;;5053402;28;20203;-64
2023/12/02 05:03:48;;;;;;;6.68;5.95;;;13.70;55.60;;;;;;5054026;28;20171;-65
2023/12/02 05:06:15;;;;;;;6.88;6.15;;;13.70;55.60;;;;;;5052931;28;20633;-66
2023/12/02 05:08:40;;;;;;;7.00;6.30;;;13.80;55.70;;;;;;5053842;28;20258;-65
2023/12/02 05:11:06;;;;;;;6.30;5.70;;;13.80;55.60;;;;;;5053702;28;20701;-66
2023/12/02 05:13:32;;;;;;;6.40;5.80;;;13.80;55.70;;;;;;5052575;28;20191;-66
2023/12/02 05:15:57;;;;;;;6.80;5.72;;;13.80;55.80;;;;;;5053491;28;20533;-65
2023/12/02 05:18:23;;;;;;;6.13;5.53;;;13.80;55.80;;;;;;5053457;28;20264;-65
2023/12/02 05:20:49;;;;;;;6.28;5.72;;;13.70;55.70;;;;;;5052817;28;20337;-65
2023/12/02 05:23:14;;;;;;;6.43;5.82;;;13.80;55.80;;;;;;5053338;28;20262;-66
2023/12/02 05:25:40;;;;;;;6.60;6.00;;;13.70;55.70;;;;;;5053544;28;20221;-64
2023/12/02 05:28:06;;;;;;;6.13;5.53;;;13.70;55.60;;;;;;5052889;28;20174;-66
2023/12/02 05:30:33;;;;;;;6.72;6.13;;;13.70;55.60;;;;;;5053122;28;20312;-65
2023/12/02 05:32:59;;;;;;;6.07;5.47;;;13.70;55.70;;;;;;5053501;28;20183;-64
2023/12/02 05:35:24;;;;;;;7.15;6.45;;;13.70;55.70;;;;;;5052331;28;20174;-66
2023/12/02 05:37:50;;;;;;;6.18;5.57;;;13.70;55.60;;;;;;5053256;28;20178;-65
2023/12/02 05:40:16;;;;;;;6.75;6.00;;;13.70;55.40;;;;;;5052952;28;20179;-65
2023/12/02 05:42:48;;;;;;;6.97;6.28;;;13.80;55.50;;;;;;5052278;28;20225;-64
2023/12/02 05:45:13;;;;;;;5.75;5.15;;;13.80;55.30;;;;;;5052782;28;20171;-64
2023/12/02 05:47:39;;;;;;;5.80;5.30;;;13.80;55.30;;;;;;5053134;28;20181;-64
2023/12/02 05:50:05;;;;;;;6.80;5.45;;;13.90;55.30;;;;;;5052321;28;20174;-64
2023/12/02 05:52:31;;;;;;;5.57;5.07;;;13.90;55.40;;;;;;5052494;28;20315;-64
2023/12/02 05:54:56;;;;;;;4.78;4.38;;;13.90;55.30;;;;;;5051780;28;20195;-64
2023/12/02 05:57:22;;;;;;;5.57;5.07;;;14.00;55.50;;;;;;5051553;28;20179;-65
2023/12/02 05:59:48;;;;;;;5.30;4.80;;;14.00;55.70;;;;;;5052723;28;20175;-64
2023/12/02 06:02:14;;;;;;;5.18;4.78;;;14.00;56.30;;;;;;5051957;28;20272;-64
2023/12/02 06:04:39;;;;;;;5.10;4.70;;;14.10;55.70;;;;;;5052777;28;20186;-65
2023/12/02 06:07:05;;;;;;;4.78;4.38;;;14.20;55.70;;;;;;5052687;28;20774;-65
2023/12/02 06:09:30;;;;;;;5.40;4.88;;;14.30;55.70;;;;;;5051195;28;20182;-65
2023/12/02 06:11:56;;;;;;;5.40;4.85;;;14.60;55.60;;;;;;5052450;28;20182;-66
2023/12/02 06:14:21;;;;;;;4.22;3.83;;;14.80;55.30;;;;;;5052181;28;20179;-64
2023/12/02 06:16:47;;;;;;;4.88;4.45;;;15.00;55.10;;;;;;5051914;28;20262;-65
2023/12/02 06:19:12;;;;;;;4.70;4.30;;;15.20;54.90;;;;;;5052563;28;20254;-64
2023/12/02 06:21:38;;;;;;;4.30;3.90;;;15.40;54.70;;;;;;5052235;28;20319;-65
2023/12/02 06:24:04;;;;;;;4.35;3.95;;;15.50;54.40;;;;;;5051599;28;20191;-66
2023/12/02 06:26:30;;;;;;;4.07;3.67;;;15.70;54.20;;;;;;5051884;28;20179;-65
2023/12/02 06:28:55;;;;;;;4.15;3.75;;;15.90;54.00;;;;;;5052150;28;20181;-66
2023/12/02 06:31:21;;;;;;;4.00;3.70;;;16.00;53.90;;;;;;5051366;28;20258;-64
2023/12/02 06:33:46;;;;;;;3.88;3.58;;;16.10;53.80;;;;;;5052116;28;20645;-66
2023/12/02 06:36:12;;;;;;;3.90;3.60;;;16.10;53.60;;;;;;5052081;28;20175;-65
2023/12/02 06:38:37;;;;;;;3.95;3.65;;;16.20;53.60;;;;;;5051201;28;20175;-65
2023/12/02 06:41:03;;;;;;;4.05;3.72;;;16.20;53.50;;;;;;5051913;28;20754;-65
2023/12/02 06:43:29;;;;;;;4.43;3.85;;;16.20;53.50;;;;;;5051569;28;20197;-63
2023/12/02 06:45:55;;;;;;;3.30;3.00;;;16.20;53.50;;;;;;5051480;28;20237;-64
2023/12/02 06:48:20;;;;;;;4.00;3.67;;;16.20;53.70;;;;;;5051896;28;20545;-63
2023/12/02 06:50:46;;;;;;;4.22;3.88;;;16.10;53.70;;;;;;5051935;28;20229;-64
2023/12/02 06:53:15;;;;;;;3.72;3.42;;;16.20;53.80;;;;;;5051021;28;20646;-65
2023/12/02 06:55:41;;;;;;;3.45;3.22;;;16.10;53.80;;;;;;5051719;28;20178;-64
2023/12/02 06:58:07;;;;;;;4.00;3.70;;;16.10;54.00;;;;;;5051949;28;20703;-65
2023/12/02 07:00:32;;;;;;;3.53;3.22;;;16.00;54.00;;;;;;5050975;28;20186;-63
2023/12/02 07:02:59;;;;;;;4.07;3.78;;;16.00;54.00;;;;;;5051936;28;20183;-64
2023/12/02 07:05:25;;;;;;;3.72;3.42;;;16.00;54.20;;;;;;5054160;28;20293;-65
2023/12/02 07:07:50;;;;;;;4.13;3.72;;;16.00;54.20;;;;;;5058417;28;20641;-66
2023/12/02 07:10:16;;;;;;;3.33;3.03;;;16.10;54.10;;;;;;5058019;28;20167;-66
2023/12/02 07:12:41;;;;;;;4.53;4.13;;;16.30;53.90;;;;;;5057498;28;20947;-65
2023/12/02 07:15:07;;;;;;;4.35;3.70;;;16.30;53.60;;;;;;5058502;28;20578;-65
2023/12/02 07:17:33;;;;;;;3.70;3.40;;;16.60;53.40;;;;;;5057951;28;20720;-65
2023/12/02 07:19:59;;;;;;;3.33;3.10;;;16.60;53.10;;;;;;5057570;28;20183;-65
2023/12/02 07:22:24;;;;;;;3.60;3.30;;;16.70;53.00;;;;;;5057910;28;20241;-65
2023/12/02 07:24:50;;;;;;;3.97;3.53;;;16.80;52.80;;;;;;5058224;28;20641;-64
2023/12/02 07:27:15;;;;;;;3.40;3.20;;;16.80;52.80;;;;;;5057455;28;20212;-65
2023/12/02 07:29:41;;;;;;;3.67;3.38;;;16.80;52.80;;;;;;5058404;28;20264;-65
2023/12/02 07:32:09;;;;;;;3.78;3.47;;;16.80;52.80;;;;;;5058329;28;20170;-65
2023/12/02 07:34:35;;;;;;;3.42;3.13;;;16.80;52.80;;;;;;5056104;28;20231;-65
2023/12/02 07:37:01;;;;;;;3.88;3.58;;;16.90;52.80;;;;;;5058522;28;20625;-65
2023/12/02 07:39:26;;;;;;;3.70;3.40;;;17.00;52.70;;;;;;5057863;28;20189;-66
2023/12/02 07:41:52;;;;;;;3.60;3.30;;;17.00;52.60;;;;;;5057657;28;20753;-65
2023/12/02 07:44:18;;;;;;;3.63;3.33;;;17.10;52.60;;;;;;5058016;28;20171;-65
2023/12/02 07:46:43;;;;;;;3.75;3.45;;;17.10;52.60;;;;;;5058396;28;20286;-64
2023/12/02 07:49:09;;;;;;;3.92;3.55;;;17.10;52.60;;;;;;5057413;28;20626;-64
2023/12/02 07:51:34;;;;;;;3.83;3.53;;;17.10;52.60;;;;;;5057586;28;20230;-65
2023/12/02 07:54:00;;;;;;;3.83;3.53;;;17.10;52.40;;;;;;5058081;28;20174;-65
2023/12/02 07:56:25;;;;;;;3.75;3.45;;;17.10;52.50;;;;;;5057126;28;20568;-65
2023/12/02 07:58:51;;;;;;;3.45;3.17;;;17.10;52.50;;;;;;5058259;28;20212;-66
2023/12/02 08:01:17;;;;;;;3.47;3.20;;;17.20;52.40;;;;;;5057817;28;20213;-64
2023/12/02 08:03:42;;;;;;;3.42;3.13;;;17.20;52.50;;;;;;5057511;28;20170;-65
2023/12/02 08:06:09;;;;;;;4.05;3.65;;;17.30;52.40;;;;;;5057933;28;20174;-65
2023/12/02 08:08:34;;;;;;;3.85;3.55;;;17.30;52.30;;;;;;5057540;28;20186;-65
2023/12/02 08:11:00;;;;;;;3.47;3.17;;;17.30;52.30;;;;;;5057123;28;20253;-65
2023/12/02 08:13:25;;;;;;;5.70;3.90;;;17.30;52.30;;;;;;5057684;28;20261;-64
2023/12/02 08:15:51;;;;;;;3.47;3.17;;;17.20;52.30;;;;;;5056897;28;20218;-65
2023/12/02 08:18:18;;;;;;;3.63;3.33;;;17.00;52.60;;;;;;5053710;28;20199;-66
2023/12/02 08:20:44;;;;;;;3.65;3.35;;;16.90;52.80;;;;;;5054656;28;20186;-65
2023/12/02 08:23:10;;;;;;;4.00;3.65;;;16.70;53.10;;;;;;5053996;28;20215;-67
2023/12/02 08:25:35;;;;;;;4.63;4.22;;;16.70;53.30;;;;;;5054432;28;20257;-65
2023/12/02 08:28:01;;;;;;;3.50;3.20;;;16.60;53.20;;;;;;5054727;28;20258;-64
2023/12/02 08:30:26;;;;;;;3.95;3.65;;;16.70;53.50;;;;;;5053344;28;20179;-64
2023/12/02 08:32:52;;;;;;;4.80;3.78;;;16.70;53.40;;;;;;5054346;28;20179;-65
2023/12/02 08:35:17;;;;;;;3.80;3.50;;;16.90;53.10;;;;;;5054128;28;20183;-64
2023/12/02 08:37:43;;;;;;;3.58;3.28;;;17.10;52.90;;;;;;5053689;28;20179;-65
2023/12/02 08:40:09;;;;;;;4.97;3.78;;;17.30;52.70;;;;;;5054204;28;20179;-65
2023/12/02 08:42:34;;;;;;;3.40;3.10;;;17.30;52.60;;;;;;5054094;28;20211;-65
2023/12/02 08:45:02;;;;;;;6.05;3.63;;;17.40;52.60;;;;;;5053535;28;20175;-64
2023/12/02 08:47:27;;;;;;;3.78;3.22;;;17.40;52.60;;;;;;5052193;28;20632;-64
2023/12/02 08:49:53;;;;;;;3.83;3.47;;;17.40;52.60;;;;;;5053867;28;20207;-64
2023/12/02 08:52:18;;;;;;;4.43;3.35;;;17.40;52.80;;;;;;5052822;28;20284;-65
2023/12/02 08:54:44;;;;;;;4.78;3.83;;;17.40;52.70;;;;;;5053713;28;20278;-64
2023/12/02 08:57:09;;;;;;;4.00;3.60;;;17.50;52.60;;;;;;5053756;28;20544;-65
2023/12/02 08:59:35;;;;;;;4.28;3.70;;;17.60;52.50;;;;;;5052165;28;20664;-64
2023/12/02 09:02:01;;;;;;;4.18;3.60;;;17.60;53.00;;;;;;5052776;28;20217;-63
2023/12/02 09:04:28;;;;;;;6.63;3.55;;;17.60;52.40;;;;;;5053371;28;20175;-65
2023/12/02 09:06:53;;;;;;;3.83;3.25;;;17.60;52.60;;;;;;5053086;28;20171;-68
2023/12/02 09:09:19;;;;;;;5.75;3.72;;;17.50;52.80;;;;;;5053455;28;20179;-75
2023/12/02 09:11:44;;;;;;;3.72;3.20;;;17.50;52.80;;;;;;5053768;28;20266;-71
2023/12/02 09:14:10;;;;;;;7.03;3.63;;;17.40;53.40;;;;;;5053031;28;20210;-71
2023/12/02 09:16:35;;;;;;;3.58;3.10;;;17.30;52.80;;;;;;5053173;28;20175;-70
2023/12/02 09:19:01;;;;;;;3.92;3.60;;;17.20;53.10;;;;;;5052984;28;20178;-68
2023/12/02 09:21:41;;;;;;;3.53;3.22;;;17.20;53.50;;;;;;5035368;28;20210;-67
2023/12/02 09:24:26;;;;;;;4.22;3.83;;;17.00;53.90;;;;;;5052323;28;20595;-66
2023/12/02 09:26:52;;;;;;;4.00;3.58;;;17.00;53.70;;;;;;5052730;28;20170;-66
2023/12/02 09:29:18;;;;;;;5.40;4.65;;;16.80;54.30;;;;;;5053103;28;20725;-66
2023/12/02 09:31:43;;;;;;;7.43;4.28;;;16.70;55.00;;;;;;5052172;28;20250;-70
2023/12/02 09:34:45;;;;;;;4.55;4.15;;;16.70;54.90;;;;;;5052502;28;20571;-78
2023/12/02 09:37:39;;;;;;;5.60;4.82;;;16.70;54.80;;;;;;5051653;28;20181;-76
2023/12/02 09:40:23;;;;;;;7.82;4.40;;;16.80;54.50;;;;;;5050703;28;20183;-66
2023/12/02 09:43:00;;;;;;;6.03;4.90;;;16.90;54.90;;;;;;5053191;28;20218;-66
2023/12/02 09:45:33;;;;;;;6.00;4.55;;;16.80;54.40;;;;;;5052898;28;20206;-64
2023/12/02 09:48:05;;;;;;;5.70;5.00;;;16.70;55.00;;;;;;5051103;28;20202;-65
2023/12/02 09:50:36;;;;;;;5.68;4.60;;;16.60;54.90;;;;;;5052639;28;20185;-66
2023/12/02 09:53:10;;;;;;;6.63;4.75;;;16.50;54.80;;;;;;5051057;28;20226;-65
2023/12/02 09:56:12;;;;;;;5.60;5.00;;;16.40;55.00;;;;;;5051937;28;20186;-65
2023/12/02 09:58:41;;;;;;;5.13;4.63;;;16.40;55.10;;;;;;5047592;28;20694;-66
2023/12/02 10:01:35;;;;;;;5.20;4.70;;;16.30;55.30;;;;;;5052528;28;20222;-65
2023/12/02 10:04:33;;;;;;;7.45;5.28;;;16.20;55.40;;;;;;5051699;28;20190;-66
2023/12/02 10:07:02;;;;;;;6.03;5.43;;;16.20;55.80;;;;;;5052704;28;20167;-69
2023/12/02 10:09:53;;;;;;;7.35;4.53;;;16.20;55.90;;;;;;5051661;28;20605;-70
2023/12/02 10:12:25;;;;;;;5.57;4.65;;;16.20;55.70;;;;;;5035604;28;20190;-68
2023/12/02 10:15:01;;;;;;;5.07;4.25;;;16.30;55.70;;;;;;5052480;28;20167;-69
2023/12/02 10:17:30;;;;;;;6.63;4.53;;;16.40;55.60;;;;;;5051638;28;20198;-72
2023/12/02 10:20:01;;;;;;;6.63;4.25;;;16.60;55.40;;;;;;5034663;28;20201;-73
2023/12/02 10:22:28;;;;;;;6.05;4.25;;;16.80;55.20;;;;;;5051455;28;20257;-71
2023/12/02 10:25:04;;;;;;;4.05;3.65;;;17.00;55.00;;;;;;5052503;28;20191;-69
2023/12/02 10:27:32;;;;;;;4.65;3.75;;;17.10;55.10;;;;;;5051169;28;20187;-67
2023/12/02 10:30:16;;;;;;;4.28;3.75;;;17.30;54.60;;;;;;5049551;28;20679;-67
2023/12/02 10:33:10;;;;;;;3.90;3.50;;;17.50;54.30;;;;;;5034175;28;20171;-69
2023/12/02 10:35:40;;;;;;;4.80;3.60;;;17.60;54.10;;;;;;5051983;28;20228;-71
2023/12/02 10:38:22;;;;;;;4.13;3.72;;;17.70;54.00;;;;;;5050012;28;20612;-70
2023/12/02 10:41:20;;;;;;;4.28;3.45;;;17.80;53.80;;;;;;5051434;28;20190;-70
2023/12/02 10:43:46;;;;;;;5.10;3.38;;;17.80;53.70;;;;;;5036584;28;20218;-69
2023/12/02 10:46:12;;;;;;;3.67;3.30;;;17.90;53.80;;;;;;5050834;28;20216;-68
2023/12/02 10:48:40;;;;;;;6.43;3.42;;;17.90;53.60;;;;;;5051681;28;20217;-68
2023/12/02 10:51:07;;;;;;;4.05;3.40;;;18.00;53.70;;;;;;5051002;28;20171;-72
2023/12/02 10:53:36;;;;;;;3.75;3.45;;;18.00;53.60;;;;;;5051516;28;20198;-71
2023/12/02 10:56:10;;;;;;;4.00;3.40;;;18.10;53.50;;;;;;5052039;28;20194;-72
2023/12/02 10:58:38;;;;;;;3.70;2.85;;;18.20;53.40;;;;;;5050971;28;20186;-72
2023/12/02 11:01:08;;;;;;;3.92;3.08;;;18.30;53.30;;;;;;5050653;28;20301;-73
2023/12/02 11:03:33;;;;;;;3.58;3.28;;;18.30;53.30;;;;;;5051657;28;20583;-72
2023/12/02 11:06:24;;;;;;;3.63;3.33;;;18.30;53.30;;;;;;5051008;28;20524;-75
2023/12/02 11:09:06;;;;;;;3.65;3.35;;;18.30;53.30;;;;;;5051992;28;20266;-74
2023/12/02 11:11:56;;;;;;;3.42;2.72;;;18.30;53.20;;;;;;5051069;28;20186;-74
2023/12/02 11:14:23;;;;;;;4.35;3.33;;;18.30;53.30;;;;;;5048034;28;20665;-68
2023/12/02 11:17:14;;;;;;;4.38;3.20;;;18.40;53.40;;;;;;5052022;28;20182;-68
2023/12/02 11:20:05;;;;;;;3.88;3.47;;;18.30;53.40;;;;;;5049909;28;20894;-68
2023/12/02 11:22:55;;;;;;;3.75;3.45;;;18.20;53.20;;;;;;5050376;28;20607;-67
2023/12/02 11:25:45;;;;;;;4.63;3.97;;;18.10;53.40;;;;;;5051745;28;20183;-67
2023/12/02 11:28:25;;;;;;;4.88;3.97;;;18.10;53.30;;;;;;5041568;28;20221;-68
2023/12/02 11:31:07;;;;;;;3.72;3.42;;;18.10;53.30;;;;;;5051782;28;20540;-67
2023/12/02 11:34:12;;;;;;;4.03;3.40;;;18.20;53.20;;;;;;5049804;28;20171;-67
2023/12/02 11:36:45;;;;;;;4.28;3.88;;;18.30;53.10;;;;;;5050929;28;20183;-67
2023/12/02 11:39:18;;;;;;;3.75;3.38;;;18.30;53.00;;;;;;5049872;28;20233;-68
2023/12/02 11:41:55;;;;;;;4.43;3.35;;;18.30;53.10;;;;;;5049858;28;20207;-67
2023/12/02 11:44:44;;;;;;;4.53;3.97;;;18.30;53.00;;;;;;5051386;28;20174;-67
2023/12/02 11:47:31;;;;;;;4.57;3.75;;;18.40;52.80;;;;;;5050696;28;20654;-67
2023/12/02 11:50:02;;;;;;;4.22;3.47;;;18.40;53.00;;;;;;5051639;28;20178;-66
2023/12/02 11:52:45;;;;;;;4.32;3.92;;;18.40;52.90;;;;;;5051519;28;20326;-67
2023/12/02 11:55:16;;;;;;;7.43;3.83;;;18.40;52.80;;;;;;5053433;28;20178;-68
2023/12/02 11:58:06;;;;;;;4.47;4.07;;;18.40;52.90;;;;;;5054881;28;20539;-67
2023/12/02 12:00:55;;;;;;;4.07;3.78;;;18.40;52.90;;;;;;5054765;28;20179;-67
2023/12/02 12:03:41;;;;;;;4.60;3.97;;;18.40;52.80;;;;;;5053894;28;20187;-66
2023/12/02 12:06:23;;;;;;;3.83;3.47;;;18.40;53.00;;;;;;5055055;28;20244;-69
2023/12/02 12:09:00;;;;;;;5.07;3.78;;;18.40;53.00;;;;;;5054313;28;20175;-70
2023/12/02 12:11:26;;;;;;;4.65;3.97;;;18.40;53.00;;;;;;5037848;28;20645;-69
2023/12/02 12:13:51;;;;;;;5.38;3.55;;;18.30;53.20;;;;;;5053526;28;20175;-69
2023/12/02 12:16:17;;;;;;;3.63;3.30;;;18.30;53.20;;;;;;5052697;28;20179;-68
2023/12/02 12:18:42;;;;;;;4.07;3.67;;;18.40;53.20;;;;;;5054705;28;20246;-68
2023/12/02 12:21:09;;;;;;;3.90;3.42;;;18.40;53.20;;;;;;5054633;28;20289;-68
2023/12/02 12:23:35;;;;;;;5.25;3.75;;;18.40;53.10;;;;;;5053929;28;20179;-68
2023/12/02 12:26:00;;;;;;;3.95;3.58;;;18.40;53.10;;;;;;5054627;28;20544;-70
2023/12/02 12:28:26;;;;;;;5.68;3.72;;;18.40;53.10;;;;;;5054324;28;20179;-68
2023/12/02 12:30:52;;;;;;;3.80;3.42;;;18.40;53.00;;;;;;5053879;28;20262;-68
2023/12/02 12:33:18;;;;;;;3.95;3.50;;;18.40;53.00;;;;;;5054205;28;20266;-69
2023/12/02 12:35:44;;;;;;;4.20;3.60;;;18.50;53.00;;;;;;5054766;28;20182;-69
2023/12/02 12:38:09;;;;;;;3.85;3.50;;;18.40;52.90;;;;;;5053950;28;20544;-70
2023/12/02 12:40:41;;;;;;;3.85;3.42;;;18.40;53.10;;;;;;5054284;28;20179;-67
2023/12/02 12:43:14;;;;;;;4.40;3.60;;;18.40;53.10;;;;;;5053687;28;20273;-68
2023/12/02 12:45:39;;;;;;;3.75;3.30;;;18.40;53.00;;;;;;5054272;28;20546;-68
2023/12/02 12:48:05;;;;;;;3.83;3.50;;;18.40;53.10;;;;;;5054300;28;20179;-68
2023/12/02 12:50:32;;;;;;;3.95;3.60;;;18.30;53.10;;;;;;5052219;28;20175;-67
2023/12/02 12:53:10;;;;;;;3.80;3.25;;;18.30;53.20;;;;;;5053945;28;20751;-68